createdAt,value
2022-12-23T00:00:19.027Z,49.43
2022-12-23T00:02:46.727Z,48.87
2022-12-23T00:05:14.782Z,51.63
2022-12-23T00:07:42.110Z,49.63
2022-12-23T00:10:10.145Z,50.53
2022-12-23T00:12:56.192Z,46.40
2022-12-23T00:15:23.815Z,45.35
2022-12-23T00:17:51.202Z,49.13
2022-12-23T00:20:18.680Z,44.93
2022-12-23T00:23:05.069Z,45.40
2022-12-23T00:25:44.678Z,46.40
2022-12-23T00:28:16.857Z,45.57
2022-12-23T00:30:54.426Z,47.90
2022-12-23T00:33:23.588Z,51.20
2022-12-23T00:35:51.247Z,46.50
2022-12-23T00:38:38.811Z,47.20
2022-12-23T00:41:27.133Z,43.43
2022-12-23T00:43:54.506Z,42.40
2022-12-23T00:46:22.217Z,44.20
2022-12-23T00:49:18.808Z,44.73
2022-12-23T00:51:46.631Z,43.43
2022-12-23T00:54:14.164Z,39.57
2022-12-23T00:56:41.568Z,44.23
2022-12-23T00:59:09.148Z,45.27
2022-12-23T01:01:55.563Z,46.77
2022-12-23T01:04:42.349Z,46.13
2022-12-23T01:07:09.929Z,46.97
2022-12-23T01:09:37.527Z,43.53
2022-12-23T01:12:05.200Z,44.87
2022-12-23T01:14:32.642Z,44.57
2022-12-23T01:17:00.458Z,44.37
2022-12-23T01:19:28.247Z,45.47
2022-12-23T01:21:55.636Z,42.67
2022-12-23T01:24:23.245Z,43.90
2022-12-23T01:26:50.671Z,39.77
2022-12-23T01:29:18.057Z,44.33
2022-12-23T01:31:45.744Z,40.73
2022-12-23T01:34:13.129Z,41.30
2022-12-23T01:36:40.572Z,39.43
2022-12-23T01:39:08.193Z,41.70
2022-12-23T01:41:54.256Z,36.00
2022-12-23T01:44:48.271Z,39.60
2022-12-23T01:47:33.294Z,36.50
2022-12-23T01:50:04.360Z,42.97
2022-12-23T01:52:32.051Z,34.73
2022-12-23T01:54:59.573Z,43.07
2022-12-23T01:57:27.233Z,41.63
2022-12-23T02:00:13.217Z,40.77
2022-12-23T02:02:59.630Z,35.38
2022-12-23T02:05:27.356Z,37.47
2022-12-23T02:08:13.359Z,37.50
2022-12-23T02:10:50.129Z,37.15
2022-12-23T02:14:14.803Z,34.97
2022-12-23T02:16:47.385Z,36.20
2022-12-23T02:19:17.902Z,35.03
2022-12-23T02:22:25.809Z,37.17
2022-12-23T02:25:20.538Z,37.23
2022-12-23T02:28:14.934Z,38.37
2022-12-23T02:30:46.999Z,35.20
2022-12-23T02:33:28.159Z,39.37
2022-12-23T02:36:11.489Z,34.97
2022-12-23T02:38:54.260Z,37.20
2022-12-23T02:41:25.280Z,44.03
2022-12-23T02:44:01.955Z,44.00
2022-12-23T02:46:58.511Z,53.63
2022-12-23T02:49:40.329Z,51.07
2022-12-23T02:52:11.795Z,38.70
2022-12-23T02:54:42.066Z,38.33
2022-12-23T02:57:09.561Z,81.17
2022-12-23T02:59:40.517Z,73.03
2022-12-23T03:02:08.201Z,42.43
2022-12-23T03:04:35.729Z,40.47
2022-12-23T03:07:07.476Z,44.43
2022-12-23T03:10:04.024Z,83.20
2022-12-23T03:12:45.074Z,44.85
2022-12-23T03:15:41.551Z,45.17
2022-12-23T03:20:42.547Z,65.57
2022-12-23T03:23:34.547Z,88.87
2022-12-23T03:26:32.604Z,85.47
2022-12-23T03:29:13.268Z,50.10
2022-12-23T03:31:40.965Z,54.20
2022-12-23T03:34:14.493Z,48.50
2022-12-23T03:36:47.193Z,57.53
2022-12-23T03:39:17.515Z,66.23
2022-12-23T03:41:57.274Z,50.67
2022-12-23T03:44:36.971Z,44.07
2022-12-23T03:47:45.320Z,48.77
2022-12-23T03:50:13.503Z,45.03
2022-12-23T03:52:56.242Z,87.37
2022-12-23T03:55:27.471Z,47.07
2022-12-23T03:58:12.671Z,68.17
2022-12-23T04:00:44.818Z,44.47
2022-12-23T04:04:07.132Z,76.20
2022-12-23T04:06:42.595Z,48.47
2022-12-23T04:09:11.014Z,46.80
2022-12-23T04:11:38.381Z,53.03
2022-12-23T04:14:06.383Z,50.83
2022-12-23T04:16:34.079Z,46.80
2022-12-23T04:19:01.495Z,58.27
2022-12-23T04:21:28.916Z,69.40
2022-12-23T04:23:56.578Z,37.23
2022-12-23T04:26:23.948Z,46.27
2022-12-23T04:28:51.286Z,42.20
2022-12-23T04:31:19.098Z,53.73
2022-12-23T04:33:46.523Z,43.43
2022-12-23T04:36:13.980Z,44.90
2022-12-23T04:38:41.655Z,41.50
2022-12-23T04:41:08.994Z,38.03
2022-12-23T04:43:36.375Z,42.87
2022-12-23T04:46:04.089Z,36.47
2022-12-23T04:48:31.439Z,51.60
2022-12-23T04:51:01.952Z,36.13
2022-12-23T04:53:29.726Z,38.90
2022-12-23T04:55:57.060Z,36.23
2022-12-23T04:58:25.163Z,52.93
2022-12-23T05:01:09.234Z,51.87
2022-12-23T05:03:37.291Z,36.27
2022-12-23T05:06:05.257Z,63.87
2022-12-23T05:08:32.837Z,31.93
2022-12-23T05:11:00.202Z,37.70
2022-12-23T05:13:27.861Z,57.43
2022-12-23T05:15:55.497Z,37.93
2022-12-23T05:18:23.003Z,52.40
2022-12-23T05:20:50.606Z,57.30
2022-12-23T05:23:18.094Z,41.80
2022-12-23T05:25:51.831Z,30.77
2022-12-23T05:28:20.167Z,33.83
2022-12-23T05:30:47.510Z,39.83
2022-12-23T05:33:15.196Z,40.13
2022-12-23T05:35:42.827Z,31.33
2022-12-23T05:38:10.254Z,32.53
2022-12-23T05:40:37.690Z,52.70
2022-12-23T05:43:05.603Z,33.60
2022-12-23T05:45:35.529Z,32.60
2022-12-23T05:48:03.132Z,30.03
2022-12-23T05:50:30.794Z,33.27
2022-12-23T05:53:02.172Z,31.27
2022-12-23T05:55:29.612Z,32.80
2022-12-23T05:57:57.214Z,38.13
2022-12-23T06:00:24.677Z,46.50
2022-12-23T06:02:54.172Z,28.67
2022-12-23T06:05:21.958Z,38.87
2022-12-23T06:07:49.276Z,32.83
2022-12-23T06:10:17.034Z,30.40
2022-12-23T06:12:44.382Z,29.87
2022-12-23T06:15:11.900Z,38.90
2022-12-23T06:17:39.518Z,32.17
2022-12-23T06:20:07.305Z,29.80
2022-12-23T06:22:34.675Z,33.63
2022-12-23T06:25:02.455Z,34.53
2022-12-23T06:27:29.834Z,38.13
2022-12-23T06:29:57.223Z,28.87
2022-12-23T06:32:24.834Z,30.17
2022-12-23T06:34:53.343Z,31.60
2022-12-23T06:37:21.108Z,32.90
2022-12-23T06:39:48.817Z,31.57
2022-12-23T06:42:16.152Z,47.97
2022-12-23T06:44:43.569Z,39.57
2022-12-23T06:47:11.278Z,29.70
2022-12-23T06:49:38.726Z,31.87
2022-12-23T06:52:06.124Z,33.67
2022-12-23T06:54:33.792Z,33.23
2022-12-23T06:57:01.159Z,32.77
2022-12-23T06:59:29.898Z,41.33
2022-12-23T07:01:57.828Z,27.07
2022-12-23T07:04:25.294Z,24.23
2022-12-23T07:06:52.784Z,26.97
2022-12-23T07:09:20.403Z,23.97
2022-12-23T07:11:47.736Z,25.40
2022-12-23T07:14:15.077Z,33.17
2022-12-23T07:16:42.827Z,35.17
2022-12-23T07:19:10.218Z,27.43
2022-12-23T07:21:38.738Z,27.17
2022-12-23T07:24:07.316Z,27.57
2022-12-23T07:26:34.669Z,26.40
2022-12-23T07:29:02.190Z,24.23
2022-12-23T07:31:29.924Z,25.27
2022-12-23T07:33:57.311Z,22.87
2022-12-23T07:36:24.694Z,23.77
2022-12-23T07:38:52.420Z,23.60
2022-12-23T07:41:19.752Z,21.67
2022-12-23T07:43:47.212Z,23.10
2022-12-23T07:46:15.028Z,22.90
2022-12-23T07:48:42.877Z,21.90
2022-12-23T07:51:10.209Z,23.10
2022-12-23T07:53:38.008Z,25.70
2022-12-23T07:56:05.893Z,29.23
2022-12-23T07:58:33.215Z,25.53
2022-12-23T08:01:05.537Z,25.47
2022-12-23T08:03:33.591Z,23.63
2022-12-23T08:06:05.566Z,24.23
2022-12-23T08:08:33.259Z,22.97
2022-12-23T08:11:02.280Z,24.73
2022-12-23T08:13:30.437Z,23.70
2022-12-23T08:15:58.712Z,24.27
2022-12-23T08:18:26.208Z,23.97
2022-12-23T08:20:57.469Z,24.50
2022-12-23T08:23:25.283Z,27.20
2022-12-23T08:26:02.937Z,25.50
2022-12-23T08:28:30.942Z,25.47
2022-12-23T08:31:09.607Z,28.53
2022-12-23T08:33:38.266Z,28.53
2022-12-23T08:36:06.717Z,27.50
2022-12-23T08:38:34.376Z,28.03
2022-12-23T08:41:02.081Z,29.67
2022-12-23T08:43:35.583Z,31.33
2022-12-23T08:46:03.956Z,28.00
2022-12-23T08:48:31.969Z,30.67
2022-12-23T08:51:03.083Z,32.53
2022-12-23T08:53:30.743Z,30.70
2022-12-23T08:56:04.099Z,32.67
2022-12-23T08:58:32.154Z,37.10
2022-12-23T09:01:03.352Z,27.93
2022-12-23T09:03:30.785Z,29.30
2022-12-23T09:05:58.612Z,29.70
2022-12-23T09:08:26.051Z,30.23
2022-12-23T09:10:53.399Z,31.10
2022-12-23T09:13:30.831Z,27.93
2022-12-23T09:16:02.263Z,29.40
2022-12-23T09:18:29.880Z,28.93
2022-12-23T09:21:05.346Z,26.17
2022-12-23T09:23:33.073Z,25.27
2022-12-23T09:26:00.455Z,25.63
2022-12-23T09:28:27.871Z,23.40
2022-12-23T09:30:55.532Z,25.43
2022-12-23T09:33:22.956Z,24.33
2022-12-23T09:35:50.323Z,25.90
2022-12-23T09:38:17.933Z,26.90
2022-12-23T09:40:45.726Z,24.40
2022-12-23T09:43:20.448Z,28.00
2022-12-23T09:46:10.857Z,31.30
2022-12-23T09:48:40.716Z,26.73
2022-12-23T09:51:09.142Z,31.10
2022-12-23T09:53:49.692Z,29.43
2022-12-23T09:56:25.513Z,28.65
2022-12-23T09:59:31.834Z,30.20
2022-12-23T10:02:04.908Z,28.17
2022-12-23T10:04:54.444Z,32.97
2022-12-23T10:07:28.926Z,28.20
2022-12-23T10:09:56.600Z,31.30
2022-12-23T10:12:39.670Z,32.77
2022-12-23T10:15:26.840Z,29.37
2022-12-23T10:17:56.320Z,27.58
2022-12-23T10:20:47.993Z,26.00
2022-12-23T10:23:26.047Z,28.10
2022-12-23T10:25:53.678Z,27.07
2022-12-23T10:28:21.045Z,29.10
2022-12-23T10:31:23.753Z,36.03
2022-12-23T10:33:48.714Z,27.83
2022-12-23T10:36:23.887Z,30.80
2022-12-23T10:38:58.705Z,34.50
2022-12-23T10:41:42.168Z,28.30
2022-12-23T10:44:40.572Z,33.20
2022-12-23T10:47:25.089Z,27.97
2022-12-23T10:50:11.368Z,30.87
2022-12-23T10:52:40.071Z,29.85
2022-12-23T10:55:26.089Z,32.10
2022-12-23T10:57:57.582Z,29.80
2022-12-23T11:00:25.604Z,32.63
2022-12-23T11:03:17.148Z,30.83
2022-12-23T11:05:44.979Z,32.57
2022-12-23T11:08:12.517Z,29.33
2022-12-23T11:10:39.915Z,29.37
2022-12-23T11:13:07.496Z,30.63
2022-12-23T11:15:36.986Z,30.83
2022-12-23T11:18:11.539Z,33.20
2022-12-23T11:20:40.668Z,35.03
2022-12-23T11:23:31.508Z,32.77
2022-12-23T11:26:06.543Z,35.72
2022-12-23T11:28:35.595Z,34.00
2022-12-23T11:31:11.789Z,37.35
2022-12-23T11:33:57.434Z,32.90
2022-12-23T11:36:26.122Z,34.35
2022-12-23T11:39:07.168Z,37.33
2022-12-23T11:41:39.375Z,35.60
2022-12-23T11:44:25.929Z,34.00
2022-12-23T11:46:53.625Z,33.95
2022-12-23T11:49:21.772Z,43.20
2022-12-23T11:52:07.571Z,48.20
2022-12-23T11:54:35.236Z,34.97
2022-12-23T11:57:04.038Z,32.90
2022-12-23T11:59:37.075Z,44.03
2022-12-23T12:02:11.604Z,39.07
2022-12-23T12:04:39.357Z,39.65
2022-12-23T12:07:06.718Z,37.63
2022-12-23T12:09:34.238Z,38.33
2022-12-23T12:12:12.079Z,46.03
2022-12-23T12:14:48.318Z,36.97
2022-12-23T12:17:29.683Z,40.65
2022-12-23T12:20:04.893Z,34.33
2022-12-23T12:22:46.578Z,38.57
2022-12-23T12:25:19.492Z,37.17
2022-12-23T12:27:59.904Z,38.17
2022-12-23T12:30:31.781Z,43.47
2022-12-23T12:33:16.045Z,36.13
2022-12-23T12:35:48.459Z,38.63
2022-12-23T12:38:27.255Z,42.83
2022-12-23T12:40:58.175Z,41.33
2022-12-23T12:43:33.553Z,44.70
2022-12-23T12:46:23.090Z,42.27
2022-12-23T12:49:02.447Z,50.73
2022-12-23T12:51:58.903Z,47.38
2022-12-23T12:54:37.513Z,55.13
2022-12-23T12:57:04.916Z,38.23
2022-12-23T12:59:34.678Z,51.37
2022-12-23T13:02:25.250Z,49.50
2022-12-23T13:05:20.772Z,56.45
2022-12-23T13:07:57.622Z,74.67
2022-12-23T13:10:48.735Z,83.80
2022-12-23T13:13:25.407Z,65.68
2022-12-23T13:16:11.090Z,50.83
2022-12-23T13:18:44.186Z,46.97
2022-12-23T13:21:16.113Z,41.10
2022-12-23T13:23:59.273Z,75.20
2022-12-23T13:27:12.415Z,59.37
2022-12-23T13:29:58.040Z,57.62
2022-12-23T13:32:57.366Z,62.07
2022-12-23T13:36:05.653Z,63.17
2022-12-23T13:38:58.474Z,54.70
2022-12-23T13:41:45.936Z,55.60
2022-12-23T13:44:15.105Z,48.60
2022-12-23T13:46:59.696Z,48.30
2022-12-23T13:49:33.499Z,57.20
2022-12-23T13:52:15.792Z,49.53
2022-12-23T13:54:51.630Z,55.90
2022-12-23T13:57:36.558Z,45.28
2022-12-23T14:00:16.678Z,43.33
2022-12-23T14:03:00.087Z,48.40
2022-12-23T14:05:31.460Z,43.00
2022-12-23T14:07:59.994Z,46.37
2022-12-23T14:10:27.551Z,63.17
2022-12-23T14:13:00.570Z,53.08
2022-12-23T14:15:57.100Z,72.62
2022-12-23T14:18:55.381Z,56.50
2022-12-23T14:21:32.623Z,68.68
2022-12-23T14:24:36.567Z,63.20
2022-12-23T14:27:26.810Z,45.22
2022-12-23T14:30:35.907Z,95.93
2022-12-23T14:33:06.410Z,63.38
2022-12-23T14:35:40.295Z,75.87
2022-12-23T14:38:16.157Z,82.40
2022-12-23T14:40:43.659Z,78.90
2022-12-23T14:43:27.393Z,89.05
2022-12-23T14:46:01.981Z,55.38
2022-12-23T14:48:35.970Z,77.47
2022-12-23T14:51:13.880Z,66.12
2022-12-23T14:53:59.456Z,68.72
2022-12-23T14:56:38.921Z,71.50
2022-12-23T14:59:30.468Z,84.47
2022-12-23T15:02:03.037Z,73.62
2022-12-23T15:04:37.165Z,71.33
2022-12-23T15:07:06.221Z,102.72
2022-12-23T15:09:38.757Z,69.80
2022-12-23T15:12:12.791Z,80.73
2022-12-23T15:14:45.867Z,73.95
2022-12-23T15:17:24.987Z,63.40
2022-12-23T15:19:53.283Z,56.37
2022-12-23T15:22:26.852Z,54.20
2022-12-23T15:24:59.664Z,50.72
2022-12-23T15:27:28.898Z,56.33
2022-12-23T15:29:57.076Z,58.70
2022-12-23T15:32:24.864Z,48.65
2022-12-23T15:34:52.469Z,50.60
2022-12-23T15:37:26.332Z,52.08
2022-12-23T15:40:11.607Z,51.55
2022-12-23T15:42:40.054Z,52.78
2022-12-23T15:45:22.859Z,42.17
2022-12-23T15:47:50.408Z,42.93
2022-12-23T15:50:18.261Z,57.00
2022-12-23T15:52:46.687Z,42.20
2022-12-23T15:55:15.726Z,45.30
2022-12-23T15:57:49.837Z,42.30
2022-12-23T16:00:33.495Z,39.90
2022-12-23T16:03:03.774Z,37.85
2022-12-23T16:05:36.815Z,37.80
2022-12-23T16:08:13.359Z,34.63
2022-12-23T16:10:40.894Z,31.45
2022-12-23T16:13:20.032Z,30.85
2022-12-23T16:15:47.521Z,28.75
2022-12-23T16:18:32.664Z,33.53
2022-12-23T16:21:03.519Z,28.15
2022-12-23T16:23:32.825Z,29.33
2022-12-23T16:26:01.207Z,31.93
2022-12-23T16:28:33.780Z,35.75
2022-12-23T16:31:01.482Z,30.87
2022-12-23T16:33:43.299Z,30.30
2022-12-23T16:36:26.167Z,27.60
2022-12-23T16:38:53.479Z,30.73
2022-12-23T16:41:21.128Z,28.83
2022-12-23T16:43:52.464Z,31.45
2022-12-23T16:46:21.174Z,30.47
2022-12-23T16:48:59.014Z,28.60
2022-12-23T16:51:26.638Z,29.70
2022-12-23T16:53:55.500Z,28.55
2022-12-23T16:56:34.835Z,28.20
2022-12-23T16:59:02.606Z,29.75
2022-12-23T17:01:32.331Z,26.90
2022-12-23T17:03:59.943Z,28.47
2022-12-23T17:06:27.607Z,29.23
2022-12-23T17:08:56.618Z,28.87
2022-12-23T17:11:29.910Z,27.02
2022-12-23T17:14:03.894Z,28.35
2022-12-23T17:16:32.342Z,28.87
2022-12-23T17:19:00.218Z,22.90
2022-12-23T17:21:32.370Z,24.42
2022-12-23T17:24:12.501Z,21.77
2022-12-23T17:26:39.949Z,22.30
2022-12-23T17:29:07.590Z,22.67
2022-12-23T17:31:34.955Z,22.87
2022-12-23T17:34:02.686Z,24.67
2022-12-23T17:36:30.383Z,25.77
2022-12-23T17:38:57.782Z,25.40
2022-12-23T17:41:28.103Z,24.77
2022-12-23T17:43:56.082Z,25.67
2022-12-23T17:46:23.607Z,23.23
2022-12-23T17:48:51.076Z,24.03
2022-12-23T17:51:22.173Z,22.60
2022-12-23T17:53:56.833Z,22.20
2022-12-23T17:56:26.902Z,23.73
2022-12-23T17:58:54.389Z,27.93
2022-12-23T18:01:29.904Z,86.47
2022-12-23T18:03:58.457Z,47.50
2022-12-23T18:06:27.215Z,37.47
2022-12-23T18:08:55.279Z,38.87
2022-12-23T18:11:28.519Z,53.83
2022-12-23T18:13:55.917Z,65.27
2022-12-23T18:16:23.708Z,59.87
2022-12-23T18:18:51.934Z,47.27
2022-12-23T18:21:24.074Z,55.10
2022-12-23T18:23:52.485Z,50.87
2022-12-23T18:26:19.989Z,54.30
2022-12-23T18:28:47.434Z,52.27
2022-12-23T18:31:19.739Z,47.57
2022-12-23T18:33:47.284Z,37.07
2022-12-23T18:36:27.264Z,53.07
2022-12-23T18:38:54.719Z,55.00
2022-12-23T18:41:22.428Z,47.50
2022-12-23T18:43:50.126Z,45.80
2022-12-23T18:46:17.701Z,45.77
2022-12-23T18:48:45.388Z,44.37
2022-12-23T18:51:16.747Z,89.03
2022-12-23T18:53:44.171Z,63.60
2022-12-23T18:56:15.633Z,55.57
2022-12-23T18:58:43.216Z,73.17
2022-12-23T19:01:17.269Z,49.97
2022-12-23T19:03:45.051Z,66.67
2022-12-23T19:06:13.312Z,69.93
2022-12-23T19:08:41.310Z,68.60
2022-12-23T19:11:12.509Z,63.77
2022-12-23T19:13:40.131Z,67.13
2022-12-23T19:16:07.644Z,59.90
2022-12-23T19:18:35.390Z,67.33
2022-12-23T19:21:05.866Z,65.27
2022-12-23T19:23:33.224Z,53.10
2022-12-23T19:26:00.993Z,86.33
2022-12-23T19:28:28.378Z,44.38
2022-12-23T19:30:55.791Z,56.28
2022-12-23T19:33:23.610Z,54.03
2022-12-23T19:35:51.294Z,51.60
2022-12-23T19:38:18.678Z,43.47
2022-12-23T19:40:46.355Z,40.50
2022-12-23T19:43:13.735Z,49.70
2022-12-23T19:45:41.107Z,51.27
2022-12-23T19:48:09.547Z,50.57
2022-12-23T19:50:36.936Z,49.23
2022-12-23T19:53:04.334Z,46.57
2022-12-23T19:55:31.943Z,52.77
2022-12-23T19:57:59.355Z,54.03
2022-12-23T20:00:26.819Z,45.40
2022-12-23T20:02:58.760Z,49.10
2022-12-23T20:05:26.764Z,45.00
2022-12-23T20:07:54.521Z,48.90
2022-12-23T20:10:21.869Z,46.67
2022-12-23T20:12:49.260Z,40.43
2022-12-23T20:15:16.940Z,44.30
2022-12-23T20:17:44.392Z,47.57
2022-12-23T20:20:12.044Z,46.63
2022-12-23T20:22:39.702Z,52.80
2022-12-23T20:25:07.341Z,54.20
2022-12-23T20:27:35.354Z,51.13
2022-12-23T20:30:02.984Z,44.17
2022-12-23T20:32:31.406Z,48.90
2022-12-23T20:34:58.915Z,46.40
2022-12-23T20:37:26.592Z,47.27
2022-12-23T20:39:53.961Z,44.20
2022-12-23T20:42:21.317Z,44.33
2022-12-23T20:44:50.786Z,45.70
2022-12-23T20:47:18.153Z,43.90
2022-12-23T20:49:45.530Z,44.60
2022-12-23T20:52:13.186Z,41.43
2022-12-23T20:54:40.753Z,38.13
2022-12-23T20:57:08.076Z,36.50
2022-12-23T20:59:35.680Z,36.90
2022-12-23T21:02:03.228Z,38.13
2022-12-23T21:04:30.709Z,42.30
2022-12-23T21:06:58.315Z,52.67
2022-12-23T21:09:25.753Z,42.20
2022-12-23T21:11:53.069Z,42.17
2022-12-23T21:14:20.687Z,43.78
2022-12-23T21:16:48.144Z,39.60
2022-12-23T21:19:17.656Z,40.27
2022-12-23T21:21:45.675Z,40.13
2022-12-23T21:24:13.179Z,41.77
2022-12-23T21:26:40.576Z,43.00
2022-12-23T21:29:09.019Z,43.30
2022-12-23T21:31:38.267Z,41.70
2022-12-23T21:34:06.146Z,47.97
2022-12-23T21:36:35.552Z,45.70
2022-12-23T21:39:04.164Z,63.37
2022-12-23T21:41:34.016Z,66.77
2022-12-23T21:44:01.618Z,55.08
2022-12-23T21:46:29.186Z,57.90
2022-12-23T21:48:57.253Z,55.37
2022-12-23T21:51:28.545Z,43.70
2022-12-23T21:53:58.242Z,38.73
2022-12-23T21:56:27.824Z,36.43
2022-12-23T21:58:59.548Z,36.17
2022-12-23T22:01:27.295Z,35.97
2022-12-23T22:03:55.721Z,41.80
2022-12-23T22:06:27.909Z,40.17
2022-12-23T22:08:55.763Z,34.27
2022-12-23T22:11:28.225Z,38.90
2022-12-23T22:13:59.409Z,32.03
2022-12-23T22:16:27.704Z,44.13
2022-12-23T22:18:55.618Z,44.30
2022-12-23T22:21:23.819Z,43.70
2022-12-23T22:23:52.189Z,39.95
2022-12-23T22:26:25.138Z,38.13
2022-12-23T22:28:57.379Z,37.33
2022-12-23T22:31:38.404Z,33.87
2022-12-23T22:34:06.177Z,32.47
2022-12-23T22:36:33.587Z,33.63
2022-12-23T22:39:01.358Z,31.57
2022-12-23T22:41:29.373Z,34.50
2022-12-23T22:43:57.038Z,29.10
2022-12-23T22:46:24.735Z,32.73
2022-12-23T22:48:52.919Z,35.63
2022-12-23T22:51:25.461Z,33.53
2022-12-23T22:53:53.159Z,34.77
2022-12-23T22:56:20.925Z,35.43
2022-12-23T22:58:48.567Z,34.50
2022-12-23T23:01:23.129Z,38.00
2022-12-23T23:03:56.667Z,35.90
2022-12-23T23:06:28.587Z,32.97
2022-12-23T23:08:56.108Z,33.53
2022-12-23T23:11:23.941Z,34.40
2022-12-23T23:13:51.318Z,32.13
2022-12-23T23:16:18.758Z,34.60
2022-12-23T23:18:46.529Z,36.40
2022-12-23T23:21:14.292Z,33.33
2022-12-23T23:23:41.625Z,35.17
2022-12-23T23:26:10.269Z,35.40
2022-12-23T23:28:39.409Z,33.10
2022-12-23T23:31:40.368Z,29.77
2022-12-23T23:33:55.006Z,31.17
2022-12-23T23:36:22.528Z,31.27
2022-12-23T23:38:49.900Z,38.13
2022-12-23T23:41:22.813Z,36.13
2022-12-23T23:43:51.609Z,31.80
2022-12-23T23:46:19.485Z,37.43
2022-12-23T23:48:46.938Z,39.10
2022-12-23T23:51:14.262Z,38.80
2022-12-23T23:53:41.921Z,40.27
2022-12-23T23:56:09.426Z,42.80
2022-12-23T23:58:36.954Z,43.67
